sensor_id;sensor_type;location;lat;lon;timestamp;P1;durP1;ratioP1;P2;durP2;ratioP2
21014;SDS011;19207;-23.482;-46.500;2022-07-03T00:00:51;79.87;;;32.75;;
21014;SDS011;19207;-23.482;-46.500;2022-07-03T00:03:37;92.62;;;35.30;;
21014;SDS011;19207;-23.482;-46.500;2022-07-03T00:06:25;84.18;;;33.67;;
21014;SDS011;19207;-23.482;-46.500;2022-07-03T00:09:11;111.72;;;37.63;;
21014;SDS011;19207;-23.482;-46.500;2022-07-03T00:11:58;87.30;;;37.55;;
21014;SDS011;19207;-23.482;-46.500;2022-07-03T00:14:45;100.65;;;39.38;;
21014;SDS011;19207;-23.482;-46.500;2022-07-03T00:17:32;89.15;;;36.08;;
21014;SDS011;19207;-23.482;-46.500;2022-07-03T00:20:19;84.53;;;36.03;;
21014;SDS011;19207;-23.482;-46.500;2022-07-03T00:23:07;73.87;;;32.38;;
21014;SDS011;19207;-23.482;-46.500;2022-07-03T00:25:55;74.97;;;28.58;;
21014;SDS011;19207;-23.482;-46.500;2022-07-03T00:28:43;70.35;;;28.65;;
21014;SDS011;19207;-23.482;-46.500;2022-07-03T00:31:31;71.40;;;27.17;;
21014;SDS011;19207;-23.482;-46.500;2022-07-03T00:34:18;66.18;;;25.45;;
21014;SDS011;19207;-23.482;-46.500;2022-07-03T00:37:08;49.17;;;23.27;;
21014;SDS011;19207;-23.482;-46.500;2022-07-03T00:39:55;55.78;;;22.08;;
21014;SDS011;19207;-23.482;-46.500;2022-07-03T00:42:42;52.30;;;20.05;;
21014;SDS011;19207;-23.482;-46.500;2022-07-03T00:45:29;51.42;;;19.23;;
21014;SDS011;19207;-23.482;-46.500;2022-07-03T00:48:19;47.60;;;18.77;;
21014;SDS011;19207;-23.482;-46.500;2022-07-03T00:51:06;45.38;;;17.50;;
21014;SDS011;19207;-23.482;-46.500;2022-07-03T00:53:53;39.92;;;16.95;;
21014;SDS011;19207;-23.482;-46.500;2022-07-03T00:56:40;45.17;;;16.33;;
21014;SDS011;19207;-23.482;-46.500;2022-07-03T00:59:27;42.10;;;16.20;;
21014;SDS011;19207;-23.482;-46.500;2022-07-03T01:02:18;38.90;;;16.20;;
21014;SDS011;19207;-23.482;-46.500;2022-07-03T01:11:24;41.60;;;16.83;;
21014;SDS011;19207;-23.482;-46.500;2022-07-03T01:14:17;39.53;;;17.60;;
21014;SDS011;19207;-23.482;-46.500;2022-07-03T01:17:10;40.50;;;17.20;;
21014;SDS011;19207;-23.482;-46.500;2022-07-03T01:20:02;37.65;;;15.98;;
21014;SDS011;19207;-23.482;-46.500;2022-07-03T01:22:48;37.38;;;16.33;;
21014;SDS011;19207;-23.482;-46.500;2022-07-03T01:25:47;39.95;;;16.83;;
21014;SDS011;19207;-23.482;-46.500;2022-07-03T01:28:36;44.17;;;15.90;;
21014;SDS011;19207;-23.482;-46.500;2022-07-03T01:31:22;34.00;;;15.13;;
21014;SDS011;19207;-23.482;-46.500;2022-07-03T01:34:10;38.90;;;15.80;;
21014;SDS011;19207;-23.482;-46.500;2022-07-03T01:37:01;40.60;;;17.73;;
21014;SDS011;19207;-23.482;-46.500;2022-07-03T01:39:48;45.22;;;17.77;;
21014;SDS011;19207;-23.482;-46.500;2022-07-03T01:42:36;40.33;;;17.42;;
21014;SDS011;19207;-23.482;-46.500;2022-07-03T01:45:26;38.83;;;16.67;;
21014;SDS011;19207;-23.482;-46.500;2022-07-03T01:48:16;38.15;;;16.25;;
21014;SDS011;19207;-23.482;-46.500;2022-07-03T01:51:02;37.55;;;16.75;;
21014;SDS011;19207;-23.482;-46.500;2022-07-03T01:53:50;44.80;;;17.58;;
21014;SDS011;19207;-23.482;-46.500;2022-07-03T01:56:37;39.58;;;17.27;;
21014;SDS011;19207;-23.482;-46.500;2022-07-03T01:59:23;38.00;;;17.58;;
21014;SDS011;19207;-23.482;-46.500;2022-07-03T02:05:00;42.45;;;17.17;;
21014;SDS011;19207;-23.482;-46.500;2022-07-03T02:08:08;43.35;;;17.62;;
21014;SDS011;19207;-23.482;-46.500;2022-07-03T02:11:16;36.08;;;17.05;;
21014;SDS011;19207;-23.482;-46.500;2022-07-03T02:17:02;48.42;;;21.10;;
21014;SDS011;19207;-23.482;-46.500;2022-07-03T02:19:53;51.53;;;20.52;;
21014;SDS011;19207;-23.482;-46.500;2022-07-03T02:22:42;40.42;;;19.58;;
21014;SDS011;19207;-23.482;-46.500;2022-07-03T02:25:41;47.13;;;20.08;;
21014;SDS011;19207;-23.482;-46.500;2022-07-03T02:31:24;50.42;;;21.27;;
21014;SDS011;19207;-23.482;-46.500;2022-07-03T02:34:13;54.65;;;22.45;;
21014;SDS011;19207;-23.482;-46.500;2022-07-03T02:37:05;56.53;;;24.20;;
21014;SDS011;19207;-23.482;-46.500;2022-07-03T02:39:58;59.35;;;24.80;;
21014;SDS011;19207;-23.482;-46.500;2022-07-03T02:46:10;53.97;;;25.37;;
21014;SDS011;19207;-23.482;-46.500;2022-07-03T03:04:07;60.00;;;26.15;;
21014;SDS011;19207;-23.482;-46.500;2022-07-03T03:07:16;59.40;;;25.50;;
21014;SDS011;19207;-23.482;-46.500;2022-07-03T03:10:01;62.80;;;24.30;;
21014;SDS011;19207;-23.482;-46.500;2022-07-03T03:12:51;50.38;;;23.92;;
21014;SDS011;19207;-23.482;-46.500;2022-07-03T03:15:38;61.40;;;25.45;;
21014;SDS011;19207;-23.482;-46.500;2022-07-03T03:18:27;58.03;;;25.12;;
21014;SDS011;19207;-23.482;-46.500;2022-07-03T03:21:17;61.08;;;25.02;;
21014;SDS011;19207;-23.482;-46.500;2022-07-03T03:24:04;52.75;;;23.95;;
21014;SDS011;19207;-23.482;-46.500;2022-07-03T03:26:51;57.28;;;25.33;;
21014;SDS011;19207;-23.482;-46.500;2022-07-03T03:29:37;54.30;;;23.75;;
21014;SDS011;19207;-23.482;-46.500;2022-07-03T03:32:25;58.13;;;24.27;;
21014;SDS011;19207;-23.482;-46.500;2022-07-03T03:35:11;56.10;;;24.00;;
21014;SDS011;19207;-23.482;-46.500;2022-07-03T03:37:59;58.85;;;22.60;;
21014;SDS011;19207;-23.482;-46.500;2022-07-03T03:40:45;52.22;;;23.60;;
21014;SDS011;19207;-23.482;-46.500;2022-07-03T03:43:32;59.30;;;23.95;;
21014;SDS011;19207;-23.482;-46.500;2022-07-03T03:46:19;55.28;;;23.87;;
21014;SDS011;19207;-23.482;-46.500;2022-07-03T03:49:05;65.15;;;24.08;;
21014;SDS011;19207;-23.482;-46.500;2022-07-03T03:51:52;51.13;;;23.10;;
21014;SDS011;19207;-23.482;-46.500;2022-07-03T03:54:38;60.58;;;25.17;;
21014;SDS011;19207;-23.482;-46.500;2022-07-03T03:57:25;57.22;;;24.33;;
21014;SDS011;19207;-23.482;-46.500;2022-07-03T04:00:11;52.60;;;24.60;;
21014;SDS011;19207;-23.482;-46.500;2022-07-03T04:02:58;53.83;;;25.10;;
21014;SDS011;19207;-23.482;-46.500;2022-07-03T04:05:44;58.72;;;26.08;;
21014;SDS011;19207;-23.482;-46.500;2022-07-03T04:08:31;56.47;;;25.60;;
21014;SDS011;19207;-23.482;-46.500;2022-07-03T04:11:18;62.03;;;27.15;;
21014;SDS011;19207;-23.482;-46.500;2022-07-03T04:14:05;67.62;;;26.77;;
21014;SDS011;19207;-23.482;-46.500;2022-07-03T04:16:51;67.60;;;27.30;;
21014;SDS011;19207;-23.482;-46.500;2022-07-03T04:19:38;66.00;;;27.60;;
21014;SDS011;19207;-23.482;-46.500;2022-07-03T04:22:24;67.78;;;26.45;;
21014;SDS011;19207;-23.482;-46.500;2022-07-03T04:25:10;67.75;;;27.02;;
21014;SDS011;19207;-23.482;-46.500;2022-07-03T04:27:57;71.55;;;29.40;;
21014;SDS011;19207;-23.482;-46.500;2022-07-03T04:30:43;69.03;;;28.83;;
21014;SDS011;19207;-23.482;-46.500;2022-07-03T04:33:29;73.55;;;29.55;;
21014;SDS011;19207;-23.482;-46.500;2022-07-03T04:36:16;70.82;;;29.10;;
21014;SDS011;19207;-23.482;-46.500;2022-07-03T04:39:03;72.05;;;30.60;;
21014;SDS011;19207;-23.482;-46.500;2022-07-03T04:41:49;66.75;;;29.30;;
21014;SDS011;19207;-23.482;-46.500;2022-07-03T04:44:36;65.45;;;30.95;;
21014;SDS011;19207;-23.482;-46.500;2022-07-03T04:47:23;76.87;;;30.85;;
21014;SDS011;19207;-23.482;-46.500;2022-07-03T04:50:10;75.05;;;31.77;;
21014;SDS011;19207;-23.482;-46.500;2022-07-03T04:52:56;82.93;;;34.45;;
21014;SDS011;19207;-23.482;-46.500;2022-07-03T04:55:43;82.00;;;34.55;;
21014;SDS011;19207;-23.482;-46.500;2022-07-03T04:58:29;82.28;;;36.22;;
21014;SDS011;19207;-23.482;-46.500;2022-07-03T05:01:15;80.95;;;34.92;;
21014;SDS011;19207;-23.482;-46.500;2022-07-03T05:04:03;80.32;;;34.30;;
21014;SDS011;19207;-23.482;-46.500;2022-07-03T05:06:51;82.30;;;32.85;;
21014;SDS011;19207;-23.482;-46.500;2022-07-03T05:09:38;71.28;;;32.25;;
21014;SDS011;19207;-23.482;-46.500;2022-07-03T05:12:24;87.00;;;32.85;;
21014;SDS011;19207;-23.482;-46.500;2022-07-03T05:15:11;78.80;;;32.63;;
21014;SDS011;19207;-23.482;-46.500;2022-07-03T05:17:57;83.60;;;32.97;;
21014;SDS011;19207;-23.482;-46.500;2022-07-03T05:20:44;76.68;;;29.77;;
21014;SDS011;19207;-23.482;-46.500;2022-07-03T05:23:31;65.10;;;28.87;;
21014;SDS011;19207;-23.482;-46.500;2022-07-03T05:26:17;55.70;;;26.17;;
21014;SDS011;19207;-23.482;-46.500;2022-07-03T05:29:04;63.47;;;25.08;;
21014;SDS011;19207;-23.482;-46.500;2022-07-03T05:31:51;55.03;;;24.55;;
21014;SDS011;19207;-23.482;-46.500;2022-07-03T05:34:37;53.25;;;25.62;;
21014;SDS011;19207;-23.482;-46.500;2022-07-03T05:37:23;58.05;;;24.92;;
21014;SDS011;19207;-23.482;-46.500;2022-07-03T05:40:10;52.90;;;24.73;;
21014;SDS011;19207;-23.482;-46.500;2022-07-03T05:42:57;49.50;;;23.90;;
21014;SDS011;19207;-23.482;-46.500;2022-07-03T05:45:46;57.50;;;24.25;;
21014;SDS011;19207;-23.482;-46.500;2022-07-03T05:48:54;52.80;;;23.60;;
21014;SDS011;19207;-23.482;-46.500;2022-07-03T05:51:40;51.40;;;23.45;;
21014;SDS011;19207;-23.482;-46.500;2022-07-03T05:54:26;48.28;;;23.17;;
21014;SDS011;19207;-23.482;-46.500;2022-07-03T05:57:13;48.38;;;23.00;;
21014;SDS011;19207;-23.482;-46.500;2022-07-03T06:00:00;61.30;;;26.33;;
21014;SDS011;19207;-23.482;-46.500;2022-07-03T06:02:46;53.05;;;25.12;;
21014;SDS011;19207;-23.482;-46.500;2022-07-03T06:05:34;62.50;;;26.60;;
21014;SDS011;19207;-23.482;-46.500;2022-07-03T06:08:20;71.68;;;28.20;;
21014;SDS011;19207;-23.482;-46.500;2022-07-03T06:11:07;64.12;;;26.48;;
21014;SDS011;19207;-23.482;-46.500;2022-07-03T06:13:53;56.90;;;25.75;;
21014;SDS011;19207;-23.482;-46.500;2022-07-03T06:16:40;62.70;;;26.67;;
21014;SDS011;19207;-23.482;-46.500;2022-07-03T06:19:26;55.17;;;26.15;;
21014;SDS011;19207;-23.482;-46.500;2022-07-03T06:22:14;65.10;;;25.40;;
21014;SDS011;19207;-23.482;-46.500;2022-07-03T06:25:00;59.58;;;27.98;;
21014;SDS011;19207;-23.482;-46.500;2022-07-03T06:27:47;56.80;;;26.10;;
21014;SDS011;19207;-23.482;-46.500;2022-07-03T06:30:33;62.13;;;26.67;;
21014;SDS011;19207;-23.482;-46.500;2022-07-03T06:33:20;55.90;;;26.95;;
21014;SDS011;19207;-23.482;-46.500;2022-07-03T06:36:07;66.75;;;26.58;;
21014;SDS011;19207;-23.482;-46.500;2022-07-03T06:38:53;56.50;;;27.42;;
21014;SDS011;19207;-23.482;-46.500;2022-07-03T06:41:40;61.30;;;27.30;;
21014;SDS011;19207;-23.482;-46.500;2022-07-03T06:44:27;59.05;;;27.05;;
21014;SDS011;19207;-23.482;-46.500;2022-07-03T06:47:14;58.53;;;28.08;;
21014;SDS011;19207;-23.482;-46.500;2022-07-03T06:50:00;70.22;;;27.98;;
21014;SDS011;19207;-23.482;-46.500;2022-07-03T06:52:46;69.95;;;29.55;;
21014;SDS011;19207;-23.482;-46.500;2022-07-03T06:55:33;76.30;;;30.10;;
21014;SDS011;19207;-23.482;-46.500;2022-07-03T06:58:20;60.58;;;29.25;;
21014;SDS011;19207;-23.482;-46.500;2022-07-03T07:01:06;70.55;;;29.42;;
21014;SDS011;19207;-23.482;-46.500;2022-07-03T07:03:53;61.15;;;28.77;;
21014;SDS011;19207;-23.482;-46.500;2022-07-03T07:06:39;65.37;;;30.27;;
21014;SDS011;19207;-23.482;-46.500;2022-07-03T07:09:26;68.47;;;32.15;;
21014;SDS011;19207;-23.482;-46.500;2022-07-03T07:12:13;67.32;;;31.73;;
21014;SDS011;19207;-23.482;-46.500;2022-07-03T07:15:01;69.20;;;32.00;;
21014;SDS011;19207;-23.482;-46.500;2022-07-03T07:17:48;69.90;;;31.23;;
21014;SDS011;19207;-23.482;-46.500;2022-07-03T07:20:34;72.47;;;31.70;;
21014;SDS011;19207;-23.482;-46.500;2022-07-03T07:23:21;70.55;;;31.77;;
21014;SDS011;19207;-23.482;-46.500;2022-07-03T07:26:07;71.95;;;31.20;;
21014;SDS011;19207;-23.482;-46.500;2022-07-03T07:28:54;76.00;;;32.72;;
21014;SDS011;19207;-23.482;-46.500;2022-07-03T07:31:41;80.12;;;33.95;;
21014;SDS011;19207;-23.482;-46.500;2022-07-03T07:34:27;81.45;;;34.75;;
21014;SDS011;19207;-23.482;-46.500;2022-07-03T07:37:13;77.78;;;34.33;;
21014;SDS011;19207;-23.482;-46.500;2022-07-03T07:39:59;75.72;;;35.00;;
21014;SDS011;19207;-23.482;-46.500;2022-07-03T07:42:47;86.47;;;36.80;;
21014;SDS011;19207;-23.482;-46.500;2022-07-03T07:45:33;81.63;;;35.10;;
21014;SDS011;19207;-23.482;-46.500;2022-07-03T07:48:20;83.43;;;34.78;;
21014;SDS011;19207;-23.482;-46.500;2022-07-03T07:51:08;92.50;;;36.28;;
21014;SDS011;19207;-23.482;-46.500;2022-07-03T07:53:54;87.28;;;36.95;;
21014;SDS011;19207;-23.482;-46.500;2022-07-03T07:56:42;91.70;;;39.20;;
21014;SDS011;19207;-23.482;-46.500;2022-07-03T07:59:28;90.70;;;38.47;;
21014;SDS011;19207;-23.482;-46.500;2022-07-03T08:02:15;97.15;;;42.83;;
21014;SDS011;19207;-23.482;-46.500;2022-07-03T08:05:19;98.25;;;38.55;;
21014;SDS011;19207;-23.482;-46.500;2022-07-03T08:08:22;96.28;;;40.15;;
21014;SDS011;19207;-23.482;-46.500;2022-07-03T08:11:08;78.05;;;37.88;;
21014;SDS011;19207;-23.482;-46.500;2022-07-03T08:13:55;84.75;;;38.42;;
21014;SDS011;19207;-23.482;-46.500;2022-07-03T08:16:41;91.87;;;37.70;;
21014;SDS011;19207;-23.482;-46.500;2022-07-03T08:19:30;79.00;;;35.22;;
21014;SDS011;19207;-23.482;-46.500;2022-07-03T08:22:18;88.37;;;36.72;;
21014;SDS011;19207;-23.482;-46.500;2022-07-03T08:25:05;86.60;;;33.67;;
21014;SDS011;19207;-23.482;-46.500;2022-07-03T08:27:52;85.05;;;33.63;;
21014;SDS011;19207;-23.482;-46.500;2022-07-03T08:30:38;85.05;;;34.08;;
21014;SDS011;19207;-23.482;-46.500;2022-07-03T08:33:25;84.45;;;34.83;;
21014;SDS011;19207;-23.482;-46.500;2022-07-03T08:36:12;79.53;;;34.70;;
21014;SDS011;19207;-23.482;-46.500;2022-07-03T08:38:59;72.82;;;34.45;;
21014;SDS011;19207;-23.482;-46.500;2022-07-03T08:41:45;83.43;;;34.03;;
21014;SDS011;19207;-23.482;-46.500;2022-07-03T08:44:35;75.25;;;33.08;;
21014;SDS011;19207;-23.482;-46.500;2022-07-03T08:47:22;73.10;;;31.98;;
21014;SDS011;19207;-23.482;-46.500;2022-07-03T08:50:13;66.35;;;31.77;;
21014;SDS011;19207;-23.482;-46.500;2022-07-03T08:53:00;77.25;;;33.03;;
21014;SDS011;19207;-23.482;-46.500;2022-07-03T08:55:48;63.55;;;30.42;;
21014;SDS011;19207;-23.482;-46.500;2022-07-03T08:58:34;69.65;;;31.15;;
21014;SDS011;19207;-23.482;-46.500;2022-07-03T09:01:21;72.05;;;32.25;;
21014;SDS011;19207;-23.482;-46.500;2022-07-03T09:04:11;82.70;;;32.95;;
21014;SDS011;19207;-23.482;-46.500;2022-07-03T09:07:00;75.80;;;32.35;;
21014;SDS011;19207;-23.482;-46.500;2022-07-03T09:09:47;82.30;;;33.30;;
21014;SDS011;19207;-23.482;-46.500;2022-07-03T09:12:34;70.53;;;32.03;;
21014;SDS011;19207;-23.482;-46.500;2022-07-03T09:15:21;77.80;;;33.35;;
21014;SDS011;19207;-23.482;-46.500;2022-07-03T09:18:07;66.18;;;31.90;;
21014;SDS011;19207;-23.482;-46.500;2022-07-03T09:21:01;72.72;;;32.88;;
21014;SDS011;19207;-23.482;-46.500;2022-07-03T09:23:48;76.95;;;34.03;;
21014;SDS011;19207;-23.482;-46.500;2022-07-03T09:26:35;81.65;;;34.22;;
21014;SDS011;19207;-23.482;-46.500;2022-07-03T09:29:22;70.85;;;31.77;;
21014;SDS011;19207;-23.482;-46.500;2022-07-03T09:32:08;66.93;;;30.37;;
21014;SDS011;19207;-23.482;-46.500;2022-07-03T09:38:00;73.43;;;30.95;;
21014;SDS011;19207;-23.482;-46.500;2022-07-03T09:40:48;62.05;;;29.77;;
21014;SDS011;19207;-23.482;-46.500;2022-07-03T09:43:36;73.10;;;29.73;;
21014;SDS011;19207;-23.482;-46.500;2022-07-03T09:46:27;63.08;;;29.10;;
21014;SDS011;19207;-23.482;-46.500;2022-07-03T09:49:14;75.30;;;29.48;;
21014;SDS011;19207;-23.482;-46.500;2022-07-03T09:52:00;72.10;;;29.80;;
21014;SDS011;19207;-23.482;-46.500;2022-07-03T09:54:46;65.80;;;28.35;;
21014;SDS011;19207;-23.482;-46.500;2022-07-03T09:57:33;66.40;;;28.52;;
21014;SDS011;19207;-23.482;-46.500;2022-07-03T10:00:20;83.07;;;31.40;;
21014;SDS011;19207;-23.482;-46.500;2022-07-03T10:03:07;72.15;;;32.00;;
21014;SDS011;19207;-23.482;-46.500;2022-07-03T10:05:55;81.12;;;32.33;;
21014;SDS011;19207;-23.482;-46.500;2022-07-03T10:08:49;76.53;;;34.15;;
21014;SDS011;19207;-23.482;-46.500;2022-07-03T10:11:35;86.10;;;33.35;;
21014;SDS011;19207;-23.482;-46.500;2022-07-03T10:14:22;76.37;;;32.22;;
21014;SDS011;19207;-23.482;-46.500;2022-07-03T10:17:09;77.40;;;34.22;;
21014;SDS011;19207;-23.482;-46.500;2022-07-03T10:19:55;77.20;;;35.17;;
21014;SDS011;19207;-23.482;-46.500;2022-07-03T10:22:42;82.20;;;38.85;;
21014;SDS011;19207;-23.482;-46.500;2022-07-03T10:25:31;73.05;;;33.30;;
21014;SDS011;19207;-23.482;-46.500;2022-07-03T10:28:18;82.57;;;32.40;;
21014;SDS011;19207;-23.482;-46.500;2022-07-03T10:31:04;70.05;;;33.38;;
21014;SDS011;19207;-23.482;-46.500;2022-07-03T10:33:54;79.75;;;32.45;;
21014;SDS011;19207;-23.482;-46.500;2022-07-03T10:36:42;66.03;;;29.48;;
21014;SDS011;19207;-23.482;-46.500;2022-07-03T10:42:35;56.55;;;27.27;;
21014;SDS011;19207;-23.482;-46.500;2022-07-03T10:46:07;60.83;;;26.20;;
21014;SDS011;19207;-23.482;-46.500;2022-07-03T10:48:51;62.40;;;25.20;;
21014;SDS011;19207;-23.482;-46.500;2022-07-03T10:54:48;57.20;;;26.08;;
21014;SDS011;19207;-23.482;-46.500;2022-07-03T10:57:37;62.05;;;26.75;;
21014;SDS011;19207;-23.482;-46.500;2022-07-03T11:00:24;63.70;;;26.20;;
21014;SDS011;19207;-23.482;-46.500;2022-07-03T11:03:11;56.22;;;26.42;;
21014;SDS011;19207;-23.482;-46.500;2022-07-03T11:05:57;49.65;;;22.33;;
21014;SDS011;19207;-23.482;-46.500;2022-07-03T11:09:03;52.75;;;21.37;;
21014;SDS011;19207;-23.482;-46.500;2022-07-03T11:11:50;43.60;;;20.90;;
21014;SDS011;19207;-23.482;-46.500;2022-07-03T11:14:42;44.33;;;19.80;;
21014;SDS011;19207;-23.482;-46.500;2022-07-03T11:17:29;42.15;;;18.65;;
21014;SDS011;19207;-23.482;-46.500;2022-07-03T11:20:24;42.20;;;19.70;;
21014;SDS011;19207;-23.482;-46.500;2022-07-03T11:23:28;43.40;;;17.65;;
21014;SDS011;19207;-23.482;-46.500;2022-07-03T11:29:02;53.40;;;18.98;;
21014;SDS011;19207;-23.482;-46.500;2022-07-03T11:31:49;36.40;;;18.23;;
21014;SDS011;19207;-23.482;-46.500;2022-07-03T11:34:41;38.92;;;17.75;;
21014;SDS011;19207;-23.482;-46.500;2022-07-03T11:37:29;40.33;;;17.67;;
21014;SDS011;19207;-23.482;-46.500;2022-07-03T11:40:16;36.58;;;15.73;;
21014;SDS011;19207;-23.482;-46.500;2022-07-03T11:43:04;34.38;;;15.57;;
21014;SDS011;19207;-23.482;-46.500;2022-07-03T11:45:51;42.70;;;16.35;;
21014;SDS011;19207;-23.482;-46.500;2022-07-03T11:48:37;43.20;;;17.23;;
21014;SDS011;19207;-23.482;-46.500;2022-07-03T11:51:24;49.50;;;16.90;;
21014;SDS011;19207;-23.482;-46.500;2022-07-03T11:54:11;33.00;;;15.75;;
21014;SDS011;19207;-23.482;-46.500;2022-07-03T11:56:58;35.75;;;17.67;;
21014;SDS011;19207;-23.482;-46.500;2022-07-03T11:59:45;38.75;;;17.25;;
21014;SDS011;19207;-23.482;-46.500;2022-07-03T12:02:32;39.78;;;17.83;;
21014;SDS011;19207;-23.482;-46.500;2022-07-03T12:05:19;42.15;;;16.73;;
21014;SDS011;19207;-23.482;-46.500;2022-07-03T12:08:05;46.37;;;15.45;;
21014;SDS011;19207;-23.482;-46.500;2022-07-03T12:10:55;29.65;;;13.75;;
21014;SDS011;19207;-23.482;-46.500;2022-07-03T12:13:42;35.33;;;14.55;;
21014;SDS011;19207;-23.482;-46.500;2022-07-03T12:16:34;32.33;;;13.20;;
21014;SDS011;19207;-23.482;-46.500;2022-07-03T12:19:21;36.10;;;16.12;;
21014;SDS011;19207;-23.482;-46.500;2022-07-03T12:22:08;39.35;;;15.45;;
21014;SDS011;19207;-23.482;-46.500;2022-07-03T12:24:56;31.48;;;14.68;;
21014;SDS011;19207;-23.482;-46.500;2022-07-03T12:27:43;32.85;;;14.07;;
21014;SDS011;19207;-23.482;-46.500;2022-07-03T12:30:31;27.87;;;13.55;;
21014;SDS011;19207;-23.482;-46.500;2022-07-03T12:33:17;35.40;;;14.40;;
21014;SDS011;19207;-23.482;-46.500;2022-07-03T12:36:08;34.78;;;14.57;;
21014;SDS011;19207;-23.482;-46.500;2022-07-03T12:38:55;37.35;;;13.10;;
21014;SDS011;19207;-23.482;-46.500;2022-07-03T12:41:41;26.65;;;13.57;;
21014;SDS011;19207;-23.482;-46.500;2022-07-03T12:44:28;30.70;;;14.57;;
21014;SDS011;19207;-23.482;-46.500;2022-07-03T12:47:16;29.92;;;13.13;;
21014;SDS011;19207;-23.482;-46.500;2022-07-03T12:50:03;43.15;;;14.05;;
21014;SDS011;19207;-23.482;-46.500;2022-07-03T12:52:54;28.55;;;13.32;;
21014;SDS011;19207;-23.482;-46.500;2022-07-03T12:55:43;33.22;;;12.60;;
21014;SDS011;19207;-23.482;-46.500;2022-07-03T12:58:31;30.83;;;12.52;;
21014;SDS011;19207;-23.482;-46.500;2022-07-03T13:01:38;28.42;;;11.65;;
21014;SDS011;19207;-23.482;-46.500;2022-07-03T13:04:34;30.33;;;11.80;;
21014;SDS011;19207;-23.482;-46.500;2022-07-03T13:07:21;34.20;;;12.13;;
21014;SDS011;19207;-23.482;-46.500;2022-07-03T13:10:07;35.40;;;12.20;;
21014;SDS011;19207;-23.482;-46.500;2022-07-03T13:12:58;22.87;;;12.07;;
21014;SDS011;19207;-23.482;-46.500;2022-07-03T13:15:44;24.10;;;10.55;;
21014;SDS011;19207;-23.482;-46.500;2022-07-03T13:18:30;19.45;;;8.40;;
21014;SDS011;19207;-23.482;-46.500;2022-07-03T13:21:17;13.38;;;7.50;;
21014;SDS011;19207;-23.482;-46.500;2022-07-03T13:24:07;18.73;;;7.30;;
21014;SDS011;19207;-23.482;-46.500;2022-07-03T13:26:54;21.10;;;6.62;;
21014;SDS011;19207;-23.482;-46.500;2022-07-03T13:29:40;17.50;;;6.95;;
21014;SDS011;19207;-23.482;-46.500;2022-07-03T13:32:27;20.55;;;7.25;;
21014;SDS011;19207;-23.482;-46.500;2022-07-03T13:35:14;23.35;;;6.95;;
21014;SDS011;19207;-23.482;-46.500;2022-07-03T13:38:00;13.55;;;6.82;;
21014;SDS011;19207;-23.482;-46.500;2022-07-03T13:40:46;26.73;;;7.53;;
21014;SDS011;19207;-23.482;-46.500;2022-07-03T13:43:33;32.28;;;7.55;;
21014;SDS011;19207;-23.482;-46.500;2022-07-03T13:46:19;19.35;;;7.75;;
21014;SDS011;19207;-23.482;-46.500;2022-07-03T13:49:08;20.15;;;7.35;;
21014;SDS011;19207;-23.482;-46.500;2022-07-03T13:51:55;23.70;;;7.55;;
21014;SDS011;19207;-23.482;-46.500;2022-07-03T13:54:42;21.05;;;7.35;;
21014;SDS011;19207;-23.482;-46.500;2022-07-03T13:57:28;14.82;;;7.30;;
21014;SDS011;19207;-23.482;-46.500;2022-07-03T14:00:16;20.02;;;6.72;;
21014;SDS011;19207;-23.482;-46.500;2022-07-03T14:03:03;19.58;;;7.00;;
21014;SDS011;19207;-23.482;-46.500;2022-07-03T14:05:49;14.27;;;6.68;;
21014;SDS011;19207;-23.482;-46.500;2022-07-03T14:08:36;14.90;;;7.03;;
21014;SDS011;19207;-23.482;-46.500;2022-07-03T14:11:23;31.17;;;13.98;;
21014;SDS011;19207;-23.482;-46.500;2022-07-03T14:14:09;42.90;;;18.73;;
21014;SDS011;19207;-23.482;-46.500;2022-07-03T14:16:56;27.40;;;12.52;;
21014;SDS011;19207;-23.482;-46.500;2022-07-03T14:19:42;28.25;;;8.73;;
21014;SDS011;19207;-23.482;-46.500;2022-07-03T14:22:29;18.40;;;7.50;;
21014;SDS011;19207;-23.482;-46.500;2022-07-03T14:25:16;17.55;;;7.65;;
21014;SDS011;19207;-23.482;-46.500;2022-07-03T14:28:02;17.73;;;8.20;;
21014;SDS011;19207;-23.482;-46.500;2022-07-03T14:31:07;22.20;;;7.10;;
21014;SDS011;19207;-23.482;-46.500;2022-07-03T14:34:12;30.05;;;7.47;;
21014;SDS011;19207;-23.482;-46.500;2022-07-03T14:36:59;15.00;;;6.80;;
21014;SDS011;19207;-23.482;-46.500;2022-07-03T14:39:45;18.92;;;6.60;;
21014;SDS011;19207;-23.482;-46.500;2022-07-03T14:42:31;19.60;;;6.78;;
21014;SDS011;19207;-23.482;-46.500;2022-07-03T14:45:18;23.38;;;6.80;;
21014;SDS011;19207;-23.482;-46.500;2022-07-03T14:48:06;20.15;;;8.05;;
21014;SDS011;19207;-23.482;-46.500;2022-07-03T14:50:53;14.45;;;6.87;;
21014;SDS011;19207;-23.482;-46.500;2022-07-03T14:53:41;14.38;;;6.55;;
21014;SDS011;19207;-23.482;-46.500;2022-07-03T14:56:28;17.23;;;6.45;;
21014;SDS011;19207;-23.482;-46.500;2022-07-03T14:59:15;26.55;;;7.00;;
21014;SDS011;19207;-23.482;-46.500;2022-07-03T15:02:01;28.08;;;6.95;;
21014;SDS011;19207;-23.482;-46.500;2022-07-03T15:05:09;16.87;;;6.37;;
21014;SDS011;19207;-23.482;-46.500;2022-07-03T15:10:45;22.13;;;6.80;;
21014;SDS011;19207;-23.482;-46.500;2022-07-03T15:13:32;35.88;;;5.32;;
21014;SDS011;19207;-23.482;-46.500;2022-07-03T15:16:20;17.25;;;6.00;;
21014;SDS011;19207;-23.482;-46.500;2022-07-03T15:19:06;20.75;;;6.28;;
21014;SDS011;19207;-23.482;-46.500;2022-07-03T15:21:54;14.07;;;5.45;;
21014;SDS011;19207;-23.482;-46.500;2022-07-03T15:24:40;10.85;;;5.50;;
21014;SDS011;19207;-23.482;-46.500;2022-07-03T15:27:28;18.05;;;5.35;;
21014;SDS011;19207;-23.482;-46.500;2022-07-03T15:30:14;17.23;;;5.37;;
21014;SDS011;19207;-23.482;-46.500;2022-07-03T15:33:01;17.05;;;5.28;;
21014;SDS011;19207;-23.482;-46.500;2022-07-03T15:35:53;11.95;;;5.32;;
21014;SDS011;19207;-23.482;-46.500;2022-07-03T15:38:44;16.10;;;5.60;;
21014;SDS011;19207;-23.482;-46.500;2022-07-03T15:50:39;14.63;;;5.22;;
21014;SDS011;19207;-23.482;-46.500;2022-07-03T15:53:29;11.50;;;5.03;;
21014;SDS011;19207;-23.482;-46.500;2022-07-03T15:56:19;16.15;;;4.65;;
21014;SDS011;19207;-23.482;-46.500;2022-07-03T15:59:07;18.40;;;4.90;;
21014;SDS011;19207;-23.482;-46.500;2022-07-03T16:01:57;9.93;;;4.75;;
21014;SDS011;19207;-23.482;-46.500;2022-07-03T16:05:04;21.58;;;5.12;;
21014;SDS011;19207;-23.482;-46.500;2022-07-03T16:07:54;10.52;;;4.95;;
21014;SDS011;19207;-23.482;-46.500;2022-07-03T16:10:40;15.52;;;4.97;;
21014;SDS011;19207;-23.482;-46.500;2022-07-03T16:13:27;9.20;;;4.45;;
21014;SDS011;19207;-23.482;-46.500;2022-07-03T16:16:14;14.27;;;4.20;;
21014;SDS011;19207;-23.482;-46.500;2022-07-03T16:19:02;11.65;;;4.35;;
21014;SDS011;19207;-23.482;-46.500;2022-07-03T16:21:48;22.52;;;5.50;;
21014;SDS011;19207;-23.482;-46.500;2022-07-03T16:24:37;13.93;;;4.90;;
21014;SDS011;19207;-23.482;-46.500;2022-07-03T16:27:24;14.93;;;4.60;;
21014;SDS011;19207;-23.482;-46.500;2022-07-03T16:30:13;14.52;;;4.60;;
21014;SDS011;19207;-23.482;-46.500;2022-07-03T16:33:00;15.75;;;5.05;;
21014;SDS011;19207;-23.482;-46.500;2022-07-03T16:35:55;15.50;;;5.45;;
21014;SDS011;19207;-23.482;-46.500;2022-07-03T16:38:44;14.80;;;4.95;;
21014;SDS011;19207;-23.482;-46.500;2022-07-03T16:41:34;17.50;;;5.43;;